createdAt,value
2018-12-26T00:01:25.918Z,5.65
2018-12-26T00:03:55.320Z,5.77
2018-12-26T00:06:24.944Z,7.58
2018-12-26T00:08:54.307Z,11.85
2018-12-26T00:11:24.165Z,10.40
2018-12-26T00:13:53.471Z,5.37
2018-12-26T00:16:22.690Z,4.37
2018-12-26T00:18:52.503Z,10.65
2018-12-26T00:21:22.262Z,7.15
2018-12-26T00:23:51.664Z,10.70
2018-12-26T00:26:21.213Z,5.42
2018-12-26T00:28:52.573Z,3.90
2018-12-26T00:31:22.137Z,6.12
2018-12-26T00:33:51.619Z,6.00
2018-12-26T00:36:21.183Z,11.77
2018-12-26T00:38:50.804Z,17.32
2018-12-26T00:41:20.277Z,17.73
2018-12-26T00:43:49.652Z,17.32
2018-12-26T00:46:19.072Z,12.50
2018-12-26T00:48:48.662Z,12.15
2018-12-26T00:51:18.477Z,18.05
2018-12-26T00:53:49.339Z,11.83
2018-12-26T00:56:18.588Z,9.78
2018-12-26T00:58:48.029Z,11.78
2018-12-26T01:01:17.142Z,15.43
2018-12-26T01:03:46.540Z,13.85
2018-12-26T01:06:18.723Z,18.05
2018-12-26T01:09:10.686Z,11.48
2018-12-26T01:11:40.757Z,9.88
2018-12-26T01:14:14.183Z,9.70
2018-12-26T01:16:43.378Z,8.38
2018-12-26T01:19:17.471Z,6.67
2018-12-26T01:21:48.474Z,5.40
2018-12-26T01:24:20.267Z,6.30
2018-12-26T01:26:51.372Z,7.42
2018-12-26T01:29:22.419Z,6.35
2018-12-26T01:31:52.152Z,4.97
2018-12-26T01:34:27.177Z,4.95
2018-12-26T01:37:01.901Z,6.97
2018-12-26T01:40:17.735Z,6.75
2018-12-26T01:42:51.915Z,4.25
2018-12-26T01:45:21.803Z,6.35
2018-12-26T01:47:52.870Z,6.22
2018-12-26T01:50:22.988Z,5.77
2018-12-26T01:52:53.566Z,6.53
2018-12-26T01:55:23.217Z,9.40
2018-12-26T02:00:49.218Z,7.65
2018-12-26T02:03:21.975Z,7.90
2018-12-26T02:05:54.756Z,7.50
2018-12-26T02:08:49.775Z,5.47
2018-12-26T02:11:20.203Z,3.98
2018-12-26T02:13:51.474Z,6.25
2018-12-26T02:16:21.766Z,2.60
2018-12-26T02:18:54.162Z,4.65
2018-12-26T02:21:27.726Z,4.85
2018-12-26T02:24:02.328Z,3.70
2018-12-26T02:26:51.180Z,3.37
2018-12-26T02:29:31.783Z,4.47
2018-12-26T02:32:18.325Z,4.67
2018-12-26T02:34:53.004Z,6.65
2018-12-26T02:37:30.227Z,6.35
2018-12-26T02:40:03.026Z,3.15
2018-12-26T02:42:42.836Z,4.10
2018-12-26T02:45:40.914Z,4.90
2018-12-26T02:48:22.341Z,4.25
2018-12-26T02:51:33.482Z,3.90
2018-12-26T02:54:18.016Z,3.20
2018-12-26T02:57:02.051Z,3.87
2018-12-26T02:59:39.179Z,4.03
2018-12-26T03:02:36.949Z,2.72
2018-12-26T03:05:20.236Z,3.55
2018-12-26T03:08:35.609Z,3.55
2018-12-26T03:11:28.457Z,5.20
2018-12-26T03:14:31.301Z,2.15
2018-12-26T03:17:26.545Z,3.40
2018-12-26T03:20:05.876Z,3.15
2018-12-26T03:22:54.328Z,1.92
2018-12-26T03:25:29.239Z,3.20
2018-12-26T03:28:32.328Z,3.75
2018-12-26T03:31:14.654Z,3.87
2018-12-26T03:34:31.258Z,2.77
2018-12-26T03:38:17.239Z,3.65
2018-12-26T03:44:54.527Z,2.70
2018-12-26T03:48:00.440Z,3.75
2018-12-26T03:51:42.090Z,4.58
2018-12-26T03:54:47.838Z,3.60
2018-12-26T03:57:41.250Z,3.92
2018-12-26T04:00:35.906Z,3.45
2018-12-26T04:03:52.628Z,2.80
2018-12-26T04:07:16.365Z,4.08
2018-12-26T04:10:23.145Z,3.47
2018-12-26T04:13:14.956Z,3.90
2018-12-26T04:16:04.897Z,4.83
2018-12-26T04:30:06.553Z,3.72
2018-12-26T04:36:06.149Z,2.98
2018-12-26T04:39:49.307Z,4.37
2018-12-26T04:43:25.993Z,4.35
2018-12-26T04:46:17.326Z,6.17
2018-12-26T04:53:24.374Z,3.55
2018-12-26T04:56:04.457Z,3.72
2018-12-26T04:58:48.817Z,2.80
2018-12-26T05:01:31.877Z,2.45
2018-12-26T05:04:18.497Z,3.20
2018-12-26T05:07:22.655Z,4.67
2018-12-26T05:10:48.422Z,4.35
2018-12-26T05:17:55.257Z,3.05
2018-12-26T11:16:56.896Z,5.50
2018-12-26T11:19:40.290Z,3.93
2018-12-26T11:22:22.374Z,5.40
2018-12-26T11:35:36.177Z,3.63
2018-12-26T11:35:36.308Z,4.37
2018-12-26T11:38:15.195Z,6.80
2018-12-26T11:38:57.656Z,5.00
2018-12-26T11:41:14.519Z,5.50
2018-12-26T11:44:44.247Z,4.63
2018-12-26T11:47:13.532Z,4.67
2018-12-26T11:53:39.006Z,3.63
2018-12-26T12:00:39.827Z,3.83
2018-12-26T12:06:37.754Z,3.17
2018-12-26T12:08:13.980Z,2.90
2018-12-26T12:13:14.953Z,4.22
2018-12-26T12:16:46.955Z,3.37
2018-12-26T12:20:07.114Z,6.87
2018-12-26T12:23:01.722Z,4.27
2018-12-26T12:32:42.415Z,4.10
2018-12-26T12:42:57.800Z,2.80
2018-12-26T13:09:27.727Z,3.43
2018-12-26T13:34:19.950Z,3.30
2018-12-26T13:46:08.438Z,3.43
2018-12-26T13:48:39.010Z,3.93
2018-12-26T13:51:10.066Z,4.37
2018-12-26T13:53:39.228Z,3.43
2018-12-26T13:56:08.129Z,2.97
2018-12-26T13:58:37.201Z,5.03
2018-12-26T14:01:06.288Z,4.23
2018-12-26T14:03:35.432Z,3.40
2018-12-26T14:06:04.629Z,3.63
2018-12-26T14:08:33.807Z,3.30
2018-12-26T14:11:03.079Z,3.50
2018-12-26T14:13:32.272Z,3.40
2018-12-26T14:16:01.417Z,3.60
2018-12-26T14:18:30.508Z,3.00
2018-12-26T14:20:59.829Z,2.70
2018-12-26T14:23:29.347Z,4.93
2018-12-26T14:25:58.632Z,3.40
2018-12-26T14:28:27.789Z,3.20
2018-12-26T14:30:57.089Z,4.07
2018-12-26T14:33:26.673Z,2.83
2018-12-26T14:35:58.729Z,3.47
2018-12-26T14:38:28.082Z,3.43
2018-12-26T14:40:57.061Z,3.60
2018-12-26T14:43:26.074Z,4.47
2018-12-26T14:45:55.585Z,3.40
2018-12-26T14:48:24.618Z,3.30
2018-12-26T14:50:53.631Z,3.23
2018-12-26T14:53:22.661Z,3.73
2018-12-26T14:55:51.857Z,3.30
2018-12-26T14:58:20.866Z,3.60
2018-12-26T15:00:49.915Z,3.53
2018-12-26T15:03:19.002Z,2.60
2018-12-26T15:05:48.377Z,2.77
2018-12-26T15:08:17.449Z,2.57
2018-12-26T15:10:46.518Z,3.30
2018-12-26T15:13:15.670Z,3.13
2018-12-26T15:15:45.003Z,3.63
2018-12-26T15:18:14.108Z,2.77
2018-12-26T15:20:43.135Z,2.80
2018-12-26T15:23:12.099Z,3.93
2018-12-26T15:25:41.126Z,3.23
2018-12-26T15:28:10.203Z,3.27
2018-12-26T15:30:39.234Z,3.80
2018-12-26T15:33:08.570Z,4.00
2018-12-26T15:35:37.702Z,5.60
2018-12-26T15:38:07.839Z,4.70
2018-12-26T15:40:36.890Z,4.83
2018-12-26T15:43:05.918Z,4.90
2018-12-26T15:45:34.972Z,4.50
2018-12-26T15:48:04.482Z,4.10
2018-12-26T15:50:33.868Z,6.40
2018-12-26T15:53:03.069Z,5.67
2018-12-26T15:55:32.484Z,6.13
2018-12-26T15:58:01.820Z,7.43
2018-12-26T16:00:37.400Z,6.67
2018-12-26T16:03:01.745Z,4.13
2018-12-26T16:05:31.086Z,3.27
2018-12-26T16:08:00.205Z,3.93
2018-12-26T16:10:29.311Z,3.30
2018-12-26T16:12:58.398Z,3.83
2018-12-26T16:15:27.567Z,19.77
2018-12-26T16:17:56.644Z,9.77
2018-12-26T16:20:26.179Z,6.40
2018-12-26T16:22:55.190Z,4.37
2018-12-26T16:25:24.466Z,5.13
2018-12-26T16:27:53.422Z,6.10
2018-12-26T16:30:22.600Z,10.90
2018-12-26T16:32:51.654Z,6.17
2018-12-26T16:35:20.749Z,5.10
2018-12-26T16:37:49.962Z,4.60
2018-12-26T16:40:18.988Z,4.00
2018-12-26T16:42:48.042Z,3.50
2018-12-26T16:45:17.118Z,3.87
2018-12-26T16:47:46.164Z,2.87
2018-12-26T16:50:15.300Z,4.70
2018-12-26T16:52:44.668Z,6.90
2018-12-26T16:55:13.795Z,3.90
2018-12-26T16:57:42.764Z,5.10
2018-12-26T17:00:12.097Z,4.40
2018-12-26T17:02:41.285Z,3.90
2018-12-26T17:05:10.419Z,3.80
2018-12-26T17:07:39.505Z,4.97
2018-12-26T17:10:11.055Z,9.90
2018-12-26T17:12:40.427Z,8.20
2018-12-26T17:15:09.488Z,10.87
2018-12-26T17:17:38.816Z,6.43
2018-12-26T17:20:07.951Z,11.97
2018-12-26T17:22:37.022Z,13.23
2018-12-26T17:25:08.994Z,16.30
2018-12-26T17:27:38.087Z,15.87
2018-12-26T17:30:07.793Z,12.30
2018-12-26T17:32:37.163Z,18.13
2018-12-26T17:35:06.384Z,14.70
2018-12-26T17:37:35.719Z,13.47
2018-12-26T17:40:05.860Z,9.57
2018-12-26T17:42:35.278Z,9.10
2018-12-26T17:45:05.157Z,6.97
2018-12-26T17:47:34.320Z,7.33
2018-12-26T17:50:52.464Z,7.10
2018-12-26T17:53:46.081Z,6.83
2018-12-26T17:56:26.854Z,6.87
2018-12-26T17:59:10.785Z,6.47
2018-12-26T18:01:49.330Z,7.90
2018-12-26T18:04:18.929Z,6.67
2018-12-26T18:06:48.285Z,8.83
2018-12-26T18:09:20.370Z,6.80
2018-12-26T18:11:51.477Z,8.40
2018-12-26T18:14:20.227Z,7.57
2018-12-26T18:16:49.364Z,5.20
2018-12-26T18:19:18.481Z,4.90
2018-12-26T18:21:47.684Z,4.57
2018-12-26T18:24:17.051Z,6.23
2018-12-26T18:26:46.175Z,5.27
2018-12-26T18:29:15.376Z,4.13
2018-12-26T18:31:46.059Z,6.40
2018-12-26T18:34:15.174Z,7.47
2018-12-26T18:36:46.755Z,12.57
2018-12-26T18:39:15.794Z,9.00
2018-12-26T18:41:48.016Z,8.23
2018-12-26T18:44:17.080Z,7.00
2018-12-26T18:46:49.497Z,5.37
2018-12-26T18:49:18.730Z,5.27
2018-12-26T18:51:47.757Z,6.87
2018-12-26T18:54:16.894Z,6.37
2018-12-26T18:56:47.222Z,4.53
2018-12-26T18:59:19.198Z,6.03
2018-12-26T19:01:50.590Z,6.23
2018-12-26T19:04:20.530Z,5.53
2018-12-26T19:06:49.899Z,4.87
2018-12-26T19:09:19.456Z,6.20
2018-12-26T19:11:48.598Z,3.80
2018-12-26T19:14:17.702Z,6.37
2018-12-26T19:16:46.884Z,4.70
2018-12-26T19:19:15.965Z,6.30
2018-12-26T19:21:45.129Z,4.80
2018-12-26T19:24:14.506Z,5.27
2018-12-26T19:26:43.574Z,5.43
2018-12-26T19:29:12.613Z,3.37
2018-12-26T19:31:41.869Z,5.17
2018-12-26T19:34:10.958Z,3.87
2018-12-26T19:36:39.970Z,4.03
2018-12-26T19:39:09.319Z,3.30
2018-12-26T19:41:38.463Z,5.47
2018-12-26T19:44:07.638Z,2.53
2018-12-26T19:46:36.969Z,4.40
2018-12-26T19:49:06.049Z,3.73
2018-12-26T19:51:35.118Z,5.73
2018-12-26T19:54:04.137Z,7.03
2018-12-26T19:56:33.156Z,6.40
2018-12-26T19:59:02.258Z,4.80
2018-12-26T20:01:31.287Z,9.23
2018-12-26T20:04:01.426Z,9.80
2018-12-26T20:06:32.313Z,10.80
2018-12-26T20:09:01.303Z,12.47
2018-12-26T20:11:30.594Z,12.90
2018-12-26T20:13:59.913Z,8.00
2018-12-26T20:16:29.006Z,5.13
2018-12-26T20:18:58.247Z,4.43
2018-12-26T20:21:28.091Z,4.33
2018-12-26T20:23:57.177Z,4.50
2018-12-26T20:26:26.348Z,2.93
2018-12-26T20:28:55.645Z,5.03
2018-12-26T20:31:24.962Z,6.10
2018-12-26T20:33:54.028Z,8.90
2018-12-26T20:36:23.093Z,5.07
2018-12-26T20:38:52.155Z,5.93
2018-12-26T20:41:21.282Z,3.90
2018-12-26T20:43:50.468Z,3.77
2018-12-26T20:46:19.574Z,4.17
2018-12-26T20:48:48.570Z,6.60
2018-12-26T20:51:17.680Z,5.30
2018-12-26T20:53:46.885Z,3.97
2018-12-26T20:56:15.947Z,4.30
2018-12-26T20:58:44.979Z,5.17
2018-12-26T21:01:14.141Z,3.77
2018-12-26T21:03:43.197Z,7.37
2018-12-26T21:06:12.231Z,6.23
2018-12-26T21:08:41.361Z,7.47
2018-12-26T21:11:10.219Z,7.10
2018-12-26T21:13:39.309Z,8.20
2018-12-26T21:16:08.415Z,7.27
2018-12-26T21:18:37.506Z,8.40
2018-12-26T21:21:06.605Z,7.63
2018-12-26T21:23:35.672Z,7.30
2018-12-26T21:26:04.966Z,7.40
2018-12-26T21:28:34.133Z,5.90
2018-12-26T21:31:04.634Z,5.40
2018-12-26T21:33:33.823Z,5.67
2018-12-26T21:36:03.365Z,3.33
2018-12-26T21:38:33.150Z,4.63
2018-12-26T21:41:02.237Z,7.00
2018-12-26T21:43:31.307Z,5.87
2018-12-26T21:46:00.510Z,7.20
2018-12-26T21:48:29.553Z,7.03
2018-12-26T21:50:58.609Z,6.50
2018-12-26T21:53:27.832Z,7.40
2018-12-26T21:55:57.006Z,5.33
2018-12-26T21:58:26.317Z,7.00
2018-12-26T22:00:55.711Z,5.00
2018-12-26T22:03:24.848Z,4.77
2018-12-26T22:05:54.158Z,5.40
2018-12-26T22:08:23.397Z,4.60
2018-12-26T22:10:52.429Z,6.73
2018-12-26T22:13:21.860Z,5.67
2018-12-26T22:15:53.938Z,6.83
2018-12-26T22:18:23.892Z,6.27
2018-12-26T22:20:52.948Z,6.63
2018-12-26T22:23:22.568Z,5.40
2018-12-26T22:25:51.816Z,4.17
2018-12-26T22:28:21.027Z,5.63
2018-12-26T22:30:50.142Z,5.20
2018-12-26T22:33:19.183Z,4.43
2018-12-26T22:35:48.162Z,5.23
2018-12-26T22:38:17.193Z,5.67
2018-12-26T22:40:46.319Z,4.93
2018-12-26T22:43:16.106Z,5.17
2018-12-26T22:45:45.210Z,5.07
2018-12-26T22:48:14.601Z,5.40
2018-12-26T22:50:45.557Z,4.40
2018-12-26T22:53:16.217Z,5.53
2018-12-26T22:55:47.144Z,6.23
2018-12-26T22:58:16.105Z,6.40
2018-12-26T23:00:46.212Z,6.30
2018-12-26T23:03:15.388Z,3.87
2018-12-26T23:05:44.472Z,3.63
2018-12-26T23:08:14.196Z,4.00
2018-12-26T23:10:43.240Z,4.90
2018-12-26T23:13:12.190Z,4.60
2018-12-26T23:15:41.284Z,6.40
2018-12-26T23:18:10.312Z,4.03
2018-12-26T23:20:39.347Z,7.20
2018-12-26T23:23:08.373Z,3.70
2018-12-26T23:25:37.468Z,4.17
2018-12-26T23:28:06.987Z,7.03
2018-12-26T23:30:36.034Z,4.40
2018-12-26T23:33:05.203Z,4.17
2018-12-26T23:35:34.310Z,5.57
2018-12-26T23:38:03.686Z,4.83
2018-12-26T23:40:32.809Z,6.90
2018-12-26T23:43:02.180Z,7.23
2018-12-26T23:45:31.206Z,5.30
2018-12-26T23:48:00.358Z,5.07
2018-12-26T23:50:30.513Z,5.60
2018-12-26T23:52:59.548Z,4.70
2018-12-26T23:55:30.176Z,5.70
2018-12-26T23:58:01.918Z,5.80
